Time;durP1;ratioP1;P1;durP2;ratioP2;P2;SDS_P1;SDS_P2;PMS_P1;PMS_P2;Temp;Humidity;BMP_temperature;BMP_pressure;BME280_temperature;BME280_humidity;BME280_pressure;Samples;Min_cycle;Max_cycle;Signal;HPM_P1;HPM_P2
2022/10/25 00:00:08;;;;;;;5.85;2.47;;;;;;;;;;1034810;28;20820;-82
2022/10/25 00:00:39;;;;;;;5.03;2.33;;;;;;;;;;1038631;28;20080;-83
2022/10/25 00:01:14;;;;;;;8.00;3.22;;;;;;;;;;1038294;28;20025;-82
2022/10/25 00:01:46;;;;;;;4.45;2.55;;;;;;;;;;1038553;28;20021;-83
2022/10/25 00:02:18;;;;;;;6.63;2.90;;;;;;;;;;1039449;28;20025;-82
2022/10/25 00:02:49;;;;;;;5.43;2.80;;;;;;;;;;1041622;28;20155;-82
2022/10/25 00:03:20;;;;;;;5.15;2.58;;;;;;;;;;1038449;28;20021;-82
2022/10/25 00:03:51;;;;;;;9.50;3.00;;;;;;;;;;1038672;28;20025;-81
2022/10/25 00:04:22;;;;;;;7.13;2.63;;;;;;;;;;1038585;28;20013;-80
2022/10/25 00:04:53;;;;;;;5.05;2.53;;;;;;;;;;1038893;28;20060;-81
2022/10/25 00:05:24;;;;;;;4.78;2.88;;;;;;;;;;1038696;28;20775;-80
2022/10/25 00:05:55;;;;;;;4.32;2.53;;;;;;;;;;1038651;28;20028;-81
2022/10/25 00:06:26;;;;;;;5.57;2.07;;;;;;;;;;1034610;28;20064;-81
2022/10/25 00:06:57;;;;;;;4.38;2.53;;;;;;;;;;1035557;28;20257;-81
2022/10/25 00:07:28;;;;;;;4.90;2.10;;;;;;;;;;1036056;28;20557;-82
2022/10/25 00:07:59;;;;;;;5.18;2.95;;;;;;;;;;1038573;28;20021;-82
2022/10/25 00:08:30;;;;;;;4.78;2.30;;;;;;;;;;1034171;28;20018;-82
2022/10/25 00:09:01;;;;;;;4.00;2.20;;;;;;;;;;1034603;28;20539;-82
2022/10/25 00:09:32;;;;;;;5.60;2.90;;;;;;;;;;1031072;28;20026;-81
2022/10/25 00:10:03;;;;;;;5.53;3.17;;;;;;;;;;1034891;28;20031;-82
2022/10/25 00:10:34;;;;;;;5.13;3.08;;;;;;;;;;1034122;28;20025;-83
2022/10/25 00:11:06;;;;;;;4.80;2.63;;;;;;;;;;1038137;28;20118;-81
2022/10/25 00:11:37;;;;;;;7.72;3.50;;;;;;;;;;1038254;28;20032;-82
2022/10/25 00:12:08;;;;;;;5.93;2.85;;;;;;;;;;1039470;28;20105;-82
2022/10/25 00:12:43;;;;;;;6.05;2.78;;;;;;;;;;1038490;28;20029;-83
2022/10/25 00:13:14;;;;;;;4.35;2.40;;;;;;;;;;1035409;28;20026;-81
2022/10/25 00:13:45;;;;;;;4.93;2.83;;;;;;;;;;1038438;28;20033;-83
2022/10/25 00:14:18;;;;;;;7.25;3.40;;;;;;;;;;1038632;28;20025;-81
2022/10/25 00:14:49;;;;;;;4.85;2.85;;;;;;;;;;1039041;28;20025;-80
2022/10/25 00:15:20;;;;;;;8.75;3.15;;;;;;;;;;1038619;28;20032;-81
2022/10/25 00:15:51;;;;;;;3.78;1.85;;;;;;;;;;1038381;28;20037;-81
2022/10/25 00:16:25;;;;;;;8.40;3.75;;;;;;;;;;1034329;28;20026;-80
2022/10/25 00:16:55;;;;;;;3.70;2.30;;;;;;;;;;1034954;28;20267;-81
2022/10/25 00:17:26;;;;;;;5.05;3.00;;;;;;;;;;1039495;28;20109;-82
2022/10/25 00:17:58;;;;;;;6.97;2.67;;;;;;;;;;1034358;28;20501;-81
2022/10/25 00:18:29;;;;;;;4.75;2.58;;;;;;;;;;1031353;28;20080;-80
2022/10/25 00:19:00;;;;;;;6.60;3.17;;;;;;;;;;1030290;28;20101;-81
2022/10/25 00:19:30;;;;;;;3.72;2.25;;;;;;;;;;1030797;28;20080;-81
2022/10/25 00:20:01;;;;;;;4.07;2.50;;;;;;;;;;1034994;28;20006;-81
2022/10/25 00:20:32;;;;;;;6.35;2.83;;;;;;;;;;1038476;28;20120;-81
2022/10/25 00:21:04;;;;;;;5.35;2.63;;;;;;;;;;1038371;28;20053;-81
2022/10/25 00:21:37;;;;;;;4.85;3.15;;;;;;;;;;1034682;28;20123;-82
2022/10/25 00:22:08;;;;;;;6.18;3.67;;;;;;;;;;1038403;28;20033;-81
2022/10/25 00:22:39;;;;;;;6.07;2.60;;;;;;;;;;1042092;28;20037;-82
2022/10/25 00:23:10;;;;;;;5.68;2.78;;;;;;;;;;1040875;28;20104;-82
2022/10/25 00:23:41;;;;;;;4.53;2.63;;;;;;;;;;1038538;28;20029;-82
2022/10/25 00:24:12;;;;;;;4.93;2.50;;;;;;;;;;1040324;28;20029;-82
2022/10/25 00:24:43;;;;;;;4.60;2.60;;;;;;;;;;1038462;28;20500;-81
2022/10/25 00:25:14;;;;;;;5.75;3.28;;;;;;;;;;1035147;28;20547;-83
2022/10/25 00:25:45;;;;;;;4.78;2.45;;;;;;;;;;1034060;28;20026;-81
2022/10/25 00:26:17;;;;;;;4.40;2.22;;;;;;;;;;1034542;28;20061;-81
2022/10/25 00:26:47;;;;;;;5.32;2.65;;;;;;;;;;1031222;28;20129;-80
2022/10/25 00:27:18;;;;;;;7.18;3.83;;;;;;;;;;1034903;28;20155;-81
2022/10/25 00:27:49;;;;;;;8.25;3.25;;;;;;;;;;1037017;28;20024;-81
2022/10/25 00:28:20;;;;;;;6.88;3.40;;;;;;;;;;1035102;28;20088;-82
2022/10/25 00:28:52;;;;;;;8.02;3.03;;;;;;;;;;1035593;28;20034;-80
2022/10/25 00:29:23;;;;;;;3.88;2.60;;;;;;;;;;1035266;28;20026;-81
2022/10/25 00:29:54;;;;;;;4.38;3.35;;;;;;;;;;1035866;28;20432;-81
2022/10/25 00:30:25;;;;;;;6.55;2.45;;;;;;;;;;1035471;28;20069;-82
2022/10/25 00:31:07;;;;;;;6.73;3.57;;;;;;;;;;1035201;28;20037;-81
2022/10/25 00:31:38;;;;;;;4.40;2.92;;;;;;;;;;1031011;28;20379;-82
2022/10/25 00:32:09;;;;;;;5.53;3.30;;;;;;;;;;1035614;28;20436;-82
2022/10/25 00:32:40;;;;;;;8.77;3.33;;;;;;;;;;1035075;28;20604;-82
2022/10/25 00:33:11;;;;;;;6.70;2.70;;;;;;;;;;1035812;28;20164;-82
2022/10/25 00:33:42;;;;;;;6.57;3.67;;;;;;;;;;1035047;28;20664;-82
2022/10/25 00:34:13;;;;;;;4.85;2.70;;;;;;;;;;1031392;28;20057;-82
2022/10/25 00:34:44;;;;;;;5.85;3.15;;;;;;;;;;1028221;28;20031;-81
2022/10/25 00:35:15;;;;;;;5.13;2.72;;;;;;;;;;1031598;28;20065;-82
2022/10/25 00:35:46;;;;;;;5.00;2.72;;;;;;;;;;1031500;28;20030;-82
2022/10/25 00:36:23;;;;;;;9.02;3.70;;;;;;;;;;1035671;28;20026;-81
2022/10/25 00:36:53;;;;;;;5.95;3.42;;;;;;;;;;1038910;28;20885;-82
2022/10/25 00:37:25;;;;;;;5.05;2.83;;;;;;;;;;1035251;28;20527;-82
2022/10/25 00:37:55;;;;;;;5.57;2.85;;;;;;;;;;1035645;28;20022;-82
2022/10/25 00:38:26;;;;;;;6.20;3.15;;;;;;;;;;1035693;28;20436;-82
2022/10/25 00:38:58;;;;;;;7.18;3.65;;;;;;;;;;1035741;28;20025;-82
2022/10/25 00:39:29;;;;;;;8.35;3.03;;;;;;;;;;1035311;28;20101;-82
2022/10/25 00:40:00;;;;;;;6.88;3.28;;;;;;;;;;1031321;28;20031;-82
2022/10/25 00:40:31;;;;;;;7.15;3.10;;;;;;;;;;1032934;28;20026;-82
2022/10/25 00:41:02;;;;;;;6.10;3.63;;;;;;;;;;1035146;28;20136;-81
2022/10/25 00:41:34;;;;;;;7.28;3.45;;;;;;;;;;1035430;28;20030;-81
2022/10/25 00:42:05;;;;;;;7.32;4.07;;;;;;;;;;1035483;28;20037;-82
2022/10/25 00:42:36;;;;;;;8.95;3.28;;;;;;;;;;1035148;28;20057;-82
2022/10/25 00:43:09;;;;;;;6.07;2.63;;;;;;;;;;1036128;28;20029;-82
2022/10/25 00:43:50;;;;;;;5.10;2.80;;;;;;;;;;1040889;28;20021;-81
2022/10/25 00:44:45;;;;;;;5.38;2.72;;;;;;;;;;1035375;28;20485;-80
2022/10/25 00:45:20;;;;;;;8.10;3.88;;;;;;;;;;1039318;28;20026;-81
2022/10/25 00:45:51;;;;;;;6.10;3.03;;;;;;;;;;1043336;28;20028;-81
2022/10/25 00:46:31;;;;;;;5.07;3.17;;;;;;;;;;1039038;28;20030;-81
2022/10/25 00:47:04;;;;;;;8.68;3.50;;;;;;;;;;1039411;28;20033;-82
2022/10/25 00:47:43;;;;;;;4.43;2.72;;;;;;;;;;1035154;28;20555;-82
2022/10/25 00:48:15;;;;;;;8.55;3.60;;;;;;;;;;1038582;28;20428;-82
2022/10/25 00:48:50;;;;;;;10.65;3.75;;;;;;;;;;1038801;28;20131;-82
2022/10/25 00:49:21;;;;;;;6.00;3.20;;;;;;;;;;1035964;28;20070;-83
2022/10/25 00:50:00;;;;;;;7.68;3.13;;;;;;;;;;1039404;28;20113;-83
2022/10/25 00:50:49;;;;;;;4.63;2.58;;;;;;;;;;1040376;28;20048;-82
2022/10/25 00:51:21;;;;;;;6.45;3.58;;;;;;;;;;1039174;28;20033;-81
2022/10/25 00:51:55;;;;;;;6.07;3.47;;;;;;;;;;1039268;28;20464;-82
2022/10/25 00:52:28;;;;;;;4.65;2.97;;;;;;;;;;1038683;28;20380;-82
2022/10/25 00:53:02;;;;;;;6.32;3.15;;;;;;;;;;1040388;28;20033;-82
2022/10/25 00:53:35;;;;;;;4.72;2.47;;;;;;;;;;1039005;28;20060;-82
2022/10/25 00:54:07;;;;;;;3.65;2.35;;;;;;;;;;1036743;28;20029;-81
2022/10/25 00:54:41;;;;;;;6.18;3.15;;;;;;;;;;1035085;28;20018;-82
2022/10/25 00:55:13;;;;;;;5.75;3.00;;;;;;;;;;1036436;28;20100;-81
2022/10/25 00:55:46;;;;;;;5.40;3.10;;;;;;;;;;1041378;28;20204;-82
2022/10/25 00:56:22;;;;;;;5.00;3.53;;;;;;;;;;1039302;28;20021;-82
2022/10/25 00:56:54;;;;;;;6.75;3.60;;;;;;;;;;1038982;28;20106;-82
2022/10/25 00:57:28;;;;;;;11.27;3.80;;;;;;;;;;1039176;28;20071;-82
2022/10/25 00:58:01;;;;;;;7.63;3.70;;;;;;;;;;1038983;28;20480;-82
2022/10/25 00:58:33;;;;;;;11.13;4.18;;;;;;;;;;1039780;28;20020;-83
2022/10/25 00:59:07;;;;;;;4.28;3.47;;;;;;;;;;1034951;28;20022;-83
2022/10/25 00:59:39;;;;;;;5.30;2.97;;;;;;;;;;1036383;28;20029;-82
2022/10/25 01:00:10;;;;;;;7.97;3.90;;;;;;;;;;1034898;28;20425;-82
2022/10/25 01:00:41;;;;;;;7.47;3.78;;;;;;;;;;1032300;28;20440;-82
2022/10/25 01:01:13;;;;;;;6.43;2.95;;;;;;;;;;1030929;28;20018;-82
2022/10/25 01:01:44;;;;;;;5.53;3.08;;;;;;;;;;1031533;28;20651;-82
2022/10/25 01:02:16;;;;;;;7.03;3.47;;;;;;;;;;1032284;28;20094;-82
2022/10/25 01:02:47;;;;;;;5.32;3.40;;;;;;;;;;1035411;28;20014;-83
2022/10/25 01:03:20;;;;;;;7.05;4.03;;;;;;;;;;1031631;28;20037;-81
2022/10/25 01:03:53;;;;;;;6.00;3.10;;;;;;;;;;1028103;28;20023;-81
2022/10/25 01:04:25;;;;;;;6.53;3.15;;;;;;;;;;1031044;28;20508;-82
2022/10/25 01:04:57;;;;;;;9.02;3.35;;;;;;;;;;1032225;28;20014;-82
2022/10/25 01:05:28;;;;;;;5.20;3.42;;;;;;;;;;1035740;28;20068;-82
2022/10/25 01:05:59;;;;;;;5.60;3.30;;;;;;;;;;1038494;28;20024;-82
2022/10/25 01:06:36;;;;;;;8.80;3.90;;;;;;;;;;1034949;28;20026;-82
2022/10/25 01:07:07;;;;;;;6.35;3.38;;;;;;;;;;1034903;28;20367;-82
2022/10/25 01:07:39;;;;;;;11.15;4.13;;;;;;;;;;1035504;28;20038;-82
2022/10/25 01:08:10;;;;;;;6.80;3.33;;;;;;;;;;1035010;28;20455;-80
2022/10/25 01:08:42;;;;;;;5.75;2.85;;;;;;;;;;1031655;28;20563;-81
2022/10/25 01:09:15;;;;;;;9.10;3.30;;;;;;;;;;1029955;28;20019;-82
2022/10/25 01:09:47;;;;;;;10.20;4.53;;;;;;;;;;1031210;28;20068;-82
2022/10/25 01:10:18;;;;;;;6.60;3.38;;;;;;;;;;1031685;28;20011;-81
2022/10/25 01:10:49;;;;;;;6.78;3.63;;;;;;;;;;1036441;28;20046;-82
2022/10/25 01:11:20;;;;;;;7.20;3.95;;;;;;;;;;1039339;28;20075;-81
2022/10/25 01:11:51;;;;;;;5.78;3.38;;;;;;;;;;1035079;28;20108;-82
2022/10/25 01:12:22;;;;;;;6.28;4.30;;;;;;;;;;1030925;28;20023;-82
2022/10/25 01:12:53;;;;;;;4.88;3.85;;;;;;;;;;1033350;28;20092;-82
2022/10/25 01:13:24;;;;;;;8.25;3.70;;;;;;;;;;1031755;28;20022;-81
2022/10/25 01:13:55;;;;;;;5.63;3.40;;;;;;;;;;1031305;28;20461;-82
2022/10/25 01:14:27;;;;;;;9.88;5.32;;;;;;;;;;1038410;28;20018;-81
2022/10/25 01:14:58;;;;;;;9.55;4.85;;;;;;;;;;1038118;28;20025;-81
2022/10/25 01:15:33;;;;;;;6.15;3.90;;;;;;;;;;1035187;28;20026;-80
2022/10/25 01:16:10;;;;;;;6.22;4.15;;;;;;;;;;1041817;28;20017;-82
2022/10/25 01:16:56;;;;;;;6.43;3.42;;;;;;;;;;1034881;28;20018;-80
2022/10/25 01:17:34;;;;;;;10.13;3.63;;;;;;;;;;1039005;28;20092;-81
2022/10/25 01:18:22;;;;;;;8.27;4.18;;;;;;;;;;1039665;28;20022;-83
2022/10/25 01:18:59;;;;;;;9.35;5.03;;;;;;;;;;1040270;28;20036;-81
2022/10/25 01:19:36;;;;;;;8.20;4.72;;;;;;;;;;1039149;28;20032;-81
2022/10/25 01:20:10;;;;;;;7.45;3.53;;;;;;;;;;1037255;28;20029;-81
2022/10/25 01:20:55;;;;;;;8.63;4.30;;;;;;;;;;1038967;28;20040;-80
2022/10/25 01:21:26;;;;;;;10.23;4.32;;;;;;;;;;1037923;28;20021;-81
2022/10/25 01:22:05;;;;;;;7.07;3.63;;;;;;;;;;1037351;28;20137;-82
2022/10/25 01:22:39;;;;;;;10.90;4.53;;;;;;;;;;1039635;28;20264;-81
2022/10/25 01:23:13;;;;;;;7.60;4.03;;;;;;;;;;1040718;28;20553;-81
2022/10/25 01:23:51;;;;;;;8.35;4.63;;;;;;;;;;1041989;28;20114;-82
2022/10/25 01:24:31;;;;;;;8.02;4.25;;;;;;;;;;1040230;28;20092;-83
2022/10/25 01:25:06;;;;;;;7.13;3.83;;;;;;;;;;1035392;28;20060;-81
2022/10/25 01:25:56;;;;;;;8.82;4.18;;;;;;;;;;1034962;28;20025;-83
2022/10/25 01:26:30;;;;;;;8.45;4.65;;;;;;;;;;1037156;28;20063;-79
2022/10/25 01:27:10;;;;;;;9.43;4.28;;;;;;;;;;1034913;28;20033;-80
2022/10/25 01:27:53;;;;;;;7.07;3.95;;;;;;;;;;1037937;28;20023;-81
2022/10/25 01:28:43;;;;;;;7.97;3.97;;;;;;;;;;1030721;28;20031;-81
2022/10/25 01:29:32;;;;;;;9.15;4.03;;;;;;;;;;1031360;28;20026;-81
2022/10/25 01:30:19;;;;;;;6.72;4.15;;;;;;;;;;1037141;28;20467;-81
2022/10/25 01:31:10;;;;;;;9.02;4.35;;;;;;;;;;1039323;28;20022;-81
2022/10/25 01:31:41;;;;;;;6.05;3.20;;;;;;;;;;1039588;28;20061;-81
2022/10/25 01:32:15;;;;;;;6.73;4.57;;;;;;;;;;1039054;28;20047;-82
2022/10/25 01:32:46;;;;;;;7.18;4.38;;;;;;;;;;1034805;28;20273;-82
2022/10/25 01:33:22;;;;;;;8.07;4.87;;;;;;;;;;1035601;28;20029;-82
2022/10/25 01:34:01;;;;;;;9.05;5.03;;;;;;;;;;1039785;28;20264;-82
2022/10/25 01:34:41;;;;;;;6.22;3.55;;;;;;;;;;1038803;28;20030;-83
2022/10/25 01:35:27;;;;;;;5.47;3.22;;;;;;;;;;1038894;28;20022;-83
2022/10/25 01:36:04;;;;;;;8.68;3.88;;;;;;;;;;1039470;28;20416;-82
2022/10/25 01:36:53;;;;;;;6.20;3.63;;;;;;;;;;1039807;28;20435;-82
2022/10/25 01:37:36;;;;;;;6.65;3.50;;;;;;;;;;1039589;28;20052;-82
2022/10/25 01:38:13;;;;;;;12.45;4.50;;;;;;;;;;1038657;28;20033;-82
2022/10/25 01:39:04;;;;;;;5.78;3.13;;;;;;;;;;1038697;28;20014;-82
2022/10/25 01:39:41;;;;;;;10.10;4.70;;;;;;;;;;1039048;28;20039;-82
2022/10/25 01:40:35;;;;;;;6.57;3.03;;;;;;;;;;1039033;28;20022;-82
2022/10/25 01:41:06;;;;;;;7.28;3.80;;;;;;;;;;1032231;28;20034;-82
2022/10/25 01:41:43;;;;;;;6.28;3.40;;;;;;;;;;1031320;28;20021;-83
2022/10/25 01:42:29;;;;;;;6.00;2.95;;;;;;;;;;1034902;28;20029;-82
2022/10/25 01:43:03;;;;;;;6.40;3.90;;;;;;;;;;1038036;28;20488;-82
2022/10/25 01:43:43;;;;;;;8.93;4.00;;;;;;;;;;1042101;28;20081;-82
2022/10/25 01:44:24;;;;;;;7.43;3.78;;;;;;;;;;1043621;28;20033;-81
2022/10/25 01:45:12;;;;;;;8.00;4.00;;;;;;;;;;1042864;28;20032;-81
2022/10/25 01:45:51;;;;;;;9.77;3.83;;;;;;;;;;1038978;28;20069;-82
2022/10/25 01:46:22;;;;;;;;;;;;;;;;;;1039326;28;20116;-82
2022/10/25 01:46:57;;;;;;;9.37;4.40;;;;;;;;;;1038943;28;19909;-82
2022/10/25 01:47:28;;;;;;;9.32;4.93;;;;;;;;;;1035014;28;20257;-82
2022/10/25 01:48:03;;;;;;;9.43;4.40;;;;;;;;;;1035080;28;20124;-83
2022/10/25 01:48:38;;;;;;;7.47;3.00;;;;;;;;;;1036186;28;20267;-83
2022/10/25 01:49:13;;;;;;;10.00;3.53;;;;;;;;;;1038942;28;20030;-81
2022/10/25 01:49:46;;;;;;;9.18;3.58;;;;;;;;;;1039223;28;20025;-81
2022/10/25 01:50:17;;;;;;;7.18;3.47;;;;;;;;;;1038812;28;20025;-81
2022/10/25 01:50:48;;;;;;;7.72;3.47;;;;;;;;;;1037611;28;20029;-81
2022/10/25 01:51:19;;;;;;;7.97;3.13;;;;;;;;;;1035070;28;20033;-81
2022/10/25 01:51:50;;;;;;;8.50;3.00;;;;;;;;;;1036778;28;20093;-81
2022/10/25 01:52:22;;;;;;;7.38;3.03;;;;;;;;;;1036862;28;20018;-82
2022/10/25 01:52:53;;;;;;;4.72;2.83;;;;;;;;;;1034984;28;20028;-82
2022/10/25 01:53:24;;;;;;;11.82;3.83;;;;;;;;;;1030730;28;20069;-81
2022/10/25 01:53:55;;;;;;;5.47;2.58;;;;;;;;;;1030768;28;20029;-82
2022/10/25 01:54:26;;;;;;;8.48;4.18;;;;;;;;;;1031871;28;20072;-82
2022/10/25 01:54:57;;;;;;;8.05;4.03;;;;;;;;;;1035391;28;20014;-83
2022/10/25 01:55:31;;;;;;;8.63;3.43;;;;;;;;;;1040537;28;20084;-82
2022/10/25 01:56:04;;;;;;;10.30;4.95;;;;;;;;;;1039021;28;20330;-82
2022/10/25 01:56:43;;;;;;;8.38;3.13;;;;;;;;;;1038773;28;20044;-82
2022/10/25 01:57:29;;;;;;;7.32;3.08;;;;;;;;;;1037716;28;20010;-81
2022/10/25 01:58:03;;;;;;;6.55;3.13;;;;;;;;;;1038745;28;20058;-82
2022/10/25 01:58:38;;;;;;;8.82;4.03;;;;;;;;;;1037547;28;20106;-81
2022/10/25 01:59:12;;;;;;;11.13;4.22;;;;;;;;;;1034926;28;20041;-82
2022/10/25 01:59:43;;;;;;;7.22;3.92;;;;;;;;;;1035346;28;20605;-81
2022/10/25 02:00:18;;;;;;;11.67;3.80;;;;;;;;;;1032121;28;20615;-82
2022/10/25 02:00:55;;;;;;;10.75;4.00;;;;;;;;;;1030688;28;20276;-82
2022/10/25 02:01:45;;;;;;;11.00;3.20;;;;;;;;;;1031091;28;20018;-82
2022/10/25 02:02:19;;;;;;;9.30;3.72;;;;;;;;;;1033382;28;21597;-82
2022/10/25 02:03:09;;;;;;;9.57;3.63;;;;;;;;;;1034708;28;20029;-82
2022/10/25 02:03:45;;;;;;;16.92;5.13;;;;;;;;;;1035002;28;20046;-82
2022/10/25 02:04:15;;;;;;;10.05;3.95;;;;;;;;;;1034474;28;20018;-82
2022/10/25 02:05:08;;;;;;;6.80;3.73;;;;;;;;;;1035368;28;20040;-82
2022/10/25 02:05:54;;;;;;;6.28;3.65;;;;;;;;;;1036011;28;20965;-82
2022/10/25 02:06:45;;;;;;;6.45;3.05;;;;;;;;;;1039956;28;20026;-82
2022/10/25 02:07:24;;;;;;;7.90;3.40;;;;;;;;;;1029418;28;20182;-83
2022/10/25 02:08:08;;;;;;;12.98;3.83;;;;;;;;;;1039340;28;20017;-83
2022/10/25 02:08:46;;;;;;;8.57;3.75;;;;;;;;;;1038456;28;20022;-83
2022/10/25 02:09:27;;;;;;;12.95;5.13;;;;;;;;;;1038763;28;20092;-81
2022/10/25 02:10:07;;;;;;;6.38;3.20;;;;;;;;;;1039921;28;20013;-82
2022/10/25 02:10:40;;;;;;;8.23;3.05;;;;;;;;;;1038771;28;20029;-82
2022/10/25 02:11:17;;;;;;;9.55;3.97;;;;;;;;;;1037827;28;20476;-83
2022/10/25 02:11:49;;;;;;;9.75;3.90;;;;;;;;;;1039228;28;20044;-82
2022/10/25 02:12:31;;;;;;;10.15;4.32;;;;;;;;;;1039357;28;20025;-82
2022/10/25 02:13:06;;;;;;;12.95;5.47;;;;;;;;;;1035148;28;20022;-83
2022/10/25 02:13:47;;;;;;;12.20;3.72;;;;;;;;;;1034578;28;20072;-82
2022/10/25 02:14:31;;;;;;;8.20;3.78;;;;;;;;;;1034341;28;20766;-83
2022/10/25 02:15:06;;;;;;;7.80;4.25;;;;;;;;;;1035686;28;20432;-83
2022/10/25 02:15:39;;;;;;;8.10;4.15;;;;;;;;;;1035432;28;20045;-83
2022/10/25 02:16:11;;;;;;;9.13;3.80;;;;;;;;;;1037700;28;20021;-83
2022/10/25 02:17:01;;;;;;;4.95;2.47;;;;;;;;;;1038935;28;20021;-82
2022/10/25 02:17:33;;;;;;;12.45;5.13;;;;;;;;;;1038556;28;20112;-83
2022/10/25 02:18:07;;;;;;;11.63;4.75;;;;;;;;;;1030895;28;20541;-81
2022/10/25 02:18:41;;;;;;;9.65;4.63;;;;;;;;;;1030549;28;20505;-81
2022/10/25 02:19:14;;;;;;;7.05;4.00;;;;;;;;;;1034284;28;20029;-81
2022/10/25 02:19:47;;;;;;;9.15;3.67;;;;;;;;;;1027948;28;20023;-81
2022/10/25 02:20:21;;;;;;;9.15;3.72;;;;;;;;;;1028569;28;20019;-81
2022/10/25 02:20:53;;;;;;;8.18;3.72;;;;;;;;;;1031929;28;20042;-83
2022/10/25 02:21:26;;;;;;;10.65;4.32;;;;;;;;;;1032094;28;20029;-81
2022/10/25 02:21:57;;;;;;;12.18;4.43;;;;;;;;;;1036341;28;20032;-83
2022/10/25 02:22:29;;;;;;;11.23;3.75;;;;;;;;;;1039438;28;20092;-83
2022/10/25 02:23:02;;;;;;;11.25;4.65;;;;;;;;;;1034904;28;20776;-81
2022/10/25 02:23:36;;;;;;;9.88;4.18;;;;;;;;;;1034685;28;20056;-82
2022/10/25 02:24:16;;;;;;;13.73;4.28;;;;;;;;;;1031616;28;20233;-84
2022/10/25 02:24:48;;;;;;;9.18;4.45;;;;;;;;;;1034885;28;20022;-81
2022/10/25 02:25:19;;;;;;;11.30;3.80;;;;;;;;;;1035299;28;20089;-81
2022/10/25 02:25:51;;;;;;;7.25;3.45;;;;;;;;;;1036580;28;20018;-82
2022/10/25 02:26:22;;;;;;;5.55;3.03;;;;;;;;;;1038694;28;20028;-82
2022/10/25 02:26:54;;;;;;;8.35;3.65;;;;;;;;;;1038763;28;20033;-82
2022/10/25 02:27:25;;;;;;;8.15;3.65;;;;;;;;;;1034895;28;20026;-81
2022/10/25 02:27:57;;;;;;;8.45;3.55;;;;;;;;;;1038665;28;20018;-80
2022/10/25 02:28:29;;;;;;;8.68;3.55;;;;;;;;;;1038598;28;20491;-80
2022/10/25 02:29:03;;;;;;;9.82;3.72;;;;;;;;;;1038900;28;20028;-81
2022/10/25 02:29:34;;;;;;;8.02;3.80;;;;;;;;;;1036723;28;20017;-81
2022/10/25 02:30:06;;;;;;;6.45;3.10;;;;;;;;;;1035138;28;20013;-81
2022/10/25 02:30:39;;;;;;;6.72;3.10;;;;;;;;;;1031990;28;20022;-82
2022/10/25 02:31:12;;;;;;;10.27;4.55;;;;;;;;;;1032788;28;20031;-81
2022/10/25 02:31:43;;;;;;;9.13;4.18;;;;;;;;;;1033340;28;20025;-81
2022/10/25 02:32:14;;;;;;;10.15;3.78;;;;;;;;;;1032496;28;20021;-81
2022/10/25 02:32:45;;;;;;;7.57;3.60;;;;;;;;;;1032137;28;20023;-81
2022/10/25 02:33:16;;;;;;;7.85;3.97;;;;;;;;;;1034936;28;20556;-80
2022/10/25 02:33:48;;;;;;;15.05;4.43;;;;;;;;;;1041025;28;20029;-80
2022/10/25 02:34:19;;;;;;;8.90;3.20;;;;;;;;;;1036324;28;20528;-82
2022/10/25 02:34:50;;;;;;;9.38;3.88;;;;;;;;;;1035062;28;20014;-82
2022/10/25 02:35:21;;;;;;;7.88;3.85;;;;;;;;;;1039321;28;20026;-79
2022/10/25 02:36:10;;;;;;;9.52;4.10;;;;;;;;;;1038864;28;20053;-82
2022/10/25 02:36:41;;;;;;;9.52;4.18;;;;;;;;;;1035752;28;20034;-82
2022/10/25 02:37:12;;;;;;;10.23;4.38;;;;;;;;;;1037740;28;20018;-81
2022/10/25 02:37:43;;;;;;;5.50;3.05;;;;;;;;;;1038766;28;20025;-81
2022/10/25 02:38:14;;;;;;;8.82;3.10;;;;;;;;;;1039539;28;20013;-82
2022/10/25 02:38:46;;;;;;;8.25;3.33;;;;;;;;;;1038843;28;20100;-82
2022/10/25 02:39:18;;;;;;;5.72;2.75;;;;;;;;;;1038836;28;20049;-81
2022/10/25 02:39:50;;;;;;;8.38;3.25;;;;;;;;;;1034524;28;20022;-81
2022/10/25 02:40:21;;;;;;;5.38;2.70;;;;;;;;;;1036034;28;20025;-81
2022/10/25 02:40:52;;;;;;;7.80;3.42;;;;;;;;;;1030936;28;20125;-81
2022/10/25 02:41:23;;;;;;;8.75;3.55;;;;;;;;;;1031070;28;20030;-81
2022/10/25 02:41:54;;;;;;;5.30;2.85;;;;;;;;;;1034035;28;20017;-80
2022/10/25 02:42:25;;;;;;;6.65;2.88;;;;;;;;;;1031018;28;20030;-81
2022/10/25 02:42:56;;;;;;;8.43;3.17;;;;;;;;;;1031455;28;20058;-81
2022/10/25 02:43:27;;;;;;;10.40;3.97;;;;;;;;;;1037993;28;20033;-80
2022/10/25 02:43:58;;;;;;;5.90;3.40;;;;;;;;;;1034721;28;20026;-81
2022/10/25 02:44:29;;;;;;;9.35;3.50;;;;;;;;;;1035108;28;20366;-81
2022/10/25 02:45:00;;;;;;;10.30;3.38;;;;;;;;;;1034817;28;20024;-81
2022/10/25 02:45:31;;;;;;;10.57;4.22;;;;;;;;;;1035190;28;20072;-81
2022/10/25 02:46:07;;;;;;;12.52;3.72;;;;;;;;;;1034670;28;20676;-80
2022/10/25 02:46:38;;;;;;;10.63;3.10;;;;;;;;;;1031909;28;20455;-81
2022/10/25 02:47:09;;;;;;;12.93;3.97;;;;;;;;;;1035650;28;20473;-80
2022/10/25 02:47:40;;;;;;;7.10;3.25;;;;;;;;;;1031663;28;20042;-81
2022/10/25 02:48:11;;;;;;;6.13;3.30;;;;;;;;;;1031420;28;20022;-80
2022/10/25 02:48:42;;;;;;;7.60;3.55;;;;;;;;;;1032491;28;20010;-80
2022/10/25 02:49:13;;;;;;;9.13;4.07;;;;;;;;;;1030716;28;20709;-81
2022/10/25 02:49:44;;;;;;;7.07;3.08;;;;;;;;;;1034354;28;20057;-81
2022/10/25 02:50:15;;;;;;;19.15;4.50;;;;;;;;;;1036709;28;20097;-81
2022/10/25 02:50:45;;;;;;;8.38;3.20;;;;;;;;;;1039618;28;20562;-81
2022/10/25 02:51:17;;;;;;;7.97;3.08;;;;;;;;;;1042662;28;20041;-81
2022/10/25 02:51:48;;;;;;;9.45;3.63;;;;;;;;;;1042974;28;20027;-80
2022/10/25 02:52:19;;;;;;;5.00;2.67;;;;;;;;;;1042166;28;20032;-81
2022/10/25 02:52:50;;;;;;;9.60;3.20;;;;;;;;;;1039120;28;20096;-80
2022/10/25 02:53:21;;;;;;;11.55;4.00;;;;;;;;;;1040517;28;20343;-81
2022/10/25 02:53:52;;;;;;;7.45;3.22;;;;;;;;;;1036484;28;20554;-81
2022/10/25 02:54:23;;;;;;;6.80;2.63;;;;;;;;;;1034490;28;20069;-81
2022/10/25 02:54:54;;;;;;;12.13;3.67;;;;;;;;;;1034650;28;20954;-81
2022/10/25 02:55:25;;;;;;;8.68;3.47;;;;;;;;;;1031747;28;20030;-81
2022/10/25 02:55:59;;;;;;;7.38;3.30;;;;;;;;;;1039787;28;20052;-81
2022/10/25 02:56:30;;;;;;;6.18;3.17;;;;;;;;;;1038509;28;20021;-81
2022/10/25 02:57:01;;;;;;;9.32;3.97;;;;;;;;;;1043388;28;20049;-81
2022/10/25 02:57:33;;;;;;;7.93;2.63;;;;;;;;;;1042650;28;20016;-82
2022/10/25 02:58:04;;;;;;;6.82;2.72;;;;;;;;;;1042894;28;20070;-81
2022/10/25 02:58:36;;;;;;;7.47;3.47;;;;;;;;;;1039382;28;20013;-81
2022/10/25 02:59:10;;;;;;;6.90;3.20;;;;;;;;;;1038837;28;20039;-81
2022/10/25 02:59:41;;;;;;;11.52;4.28;;;;;;;;;;1034390;28;20020;-81
2022/10/25 03:00:12;;;;;;;6.40;3.13;;;;;;;;;;1034778;28;20028;-80
2022/10/25 03:00:43;;;;;;;12.15;4.07;;;;;;;;;;1031327;28;20109;-81
2022/10/25 03:01:15;;;;;;;8.13;3.70;;;;;;;;;;1035394;28;20823;-82
2022/10/25 03:01:46;;;;;;;10.23;4.20;;;;;;;;;;1032451;28;20176;-81
2022/10/25 03:02:17;;;;;;;10.10;3.90;;;;;;;;;;1037781;28;20424;-80
2022/10/25 03:02:48;;;;;;;10.93;3.22;;;;;;;;;;1038636;28;20457;-81
2022/10/25 03:03:19;;;;;;;6.20;3.35;;;;;;;;;;1038377;28;20017;-80
2022/10/25 03:03:50;;;;;;;13.07;4.15;;;;;;;;;;1035743;28;20381;-80
2022/10/25 03:04:21;;;;;;;8.88;3.97;;;;;;;;;;1039156;28;20014;-81
2022/10/25 03:04:52;;;;;;;7.93;3.58;;;;;;;;;;1038575;28;20045;-81
2022/10/25 03:05:25;;;;;;;5.75;2.63;;;;;;;;;;1038868;28;20037;-81
2022/10/25 03:05:56;;;;;;;8.07;2.95;;;;;;;;;;1035668;28;20016;-81
2022/10/25 03:06:27;;;;;;;6.03;3.30;;;;;;;;;;1035095;28;20029;-81
2022/10/25 03:06:58;;;;;;;10.05;3.55;;;;;;;;;;1034590;28;20057;-81
2022/10/25 03:07:29;;;;;;;6.72;2.85;;;;;;;;;;1033556;28;20512;-83
2022/10/25 03:08:00;;;;;;;7.07;3.30;;;;;;;;;;1034598;28;20048;-81
2022/10/25 03:08:31;;;;;;;9.70;4.35;;;;;;;;;;1036317;28;20022;-81
2022/10/25 03:09:02;;;;;;;7.68;3.30;;;;;;;;;;1038756;28;20032;-81
2022/10/25 03:09:33;;;;;;;9.73;3.80;;;;;;;;;;1038697;28;20014;-81
2022/10/25 03:10:05;;;;;;;6.90;3.15;;;;;;;;;;1038962;28;20014;-81
2022/10/25 03:10:36;;;;;;;6.40;2.80;;;;;;;;;;1038569;28;20096;-81
2022/10/25 03:11:08;;;;;;;6.97;3.03;;;;;;;;;;1039275;28;20022;-81
2022/10/25 03:11:39;;;;;;;14.38;3.83;;;;;;;;;;1038768;28;20037;-82
2022/10/25 03:12:10;;;;;;;9.57;3.22;;;;;;;;;;1039336;28;20029;-82
2022/10/25 03:12:41;;;;;;;5.80;3.20;;;;;;;;;;1035625;28;20028;-82
2022/10/25 03:13:12;;;;;;;9.27;3.55;;;;;;;;;;1035052;28;20265;-83
2022/10/25 03:13:43;;;;;;;9.65;4.50;;;;;;;;;;1036959;28;20074;-83
2022/10/25 03:14:14;;;;;;;9.00;4.13;;;;;;;;;;1037286;28;20018;-82
2022/10/25 03:14:45;;;;;;;9.15;4.30;;;;;;;;;;1038805;28;20083;-83
2022/10/25 03:15:16;;;;;;;9.40;3.80;;;;;;;;;;1038876;28;20087;-82
2022/10/25 03:15:47;;;;;;;7.60;3.60;;;;;;;;;;1038420;28;20116;-82
2022/10/25 03:16:18;;;;;;;8.90;3.38;;;;;;;;;;1035489;28;20026;-82
2022/10/25 03:16:49;;;;;;;9.43;3.78;;;;;;;;;;1034452;28;20037;-82
2022/10/25 03:17:20;;;;;;;9.45;3.83;;;;;;;;;;1035012;28;20032;-83
2022/10/25 03:17:51;;;;;;;10.07;4.07;;;;;;;;;;1034839;28;20074;-82
2022/10/25 03:18:22;;;;;;;11.05;4.05;;;;;;;;;;1034992;28;20046;-82
2022/10/25 03:18:56;;;;;;;9.60;3.90;;;;;;;;;;1040276;28;20043;-82
2022/10/25 03:19:26;;;;;;;9.55;3.78;;;;;;;;;;1035910;28;20029;-82
2022/10/25 03:19:57;;;;;;;6.75;2.90;;;;;;;;;;1034574;28;20029;-83
2022/10/25 03:20:28;;;;;;;8.55;3.03;;;;;;;;;;1035145;28;20029;-82
2022/10/25 03:21:00;;;;;;;6.78;3.70;;;;;;;;;;1034410;28;20774;-82
2022/10/25 03:21:31;;;;;;;9.63;4.22;;;;;;;;;;1035453;28;20436;-83